Time;durP1;ratioP1;P1;durP2;ratioP2;P2;SDS_P1;SDS_P2;PMS_P1;PMS_P2;Temp;Humidity;BMP_temperature;BMP_pressure;BME280_temperature;BME280_humidity;BME280_pressure;Samples;Min_cycle;Max_cycle;Signal;HPM_P1;HPM_P2
2022/04/30 00:02:09;;;;;;;20.55;14.73;;;14.40;99.90;;;;;;4972173;28;20126;-41
2022/04/30 00:04:39;;;;;;;26.02;14.95;;;14.40;99.90;;;;;;4972748;28;20030;-48
2022/04/30 00:07:05;;;;;;;20.10;13.70;;;14.30;99.90;;;;;;4975390;28;20022;-42
2022/04/30 00:09:31;;;;;;;26.23;15.75;;;14.40;99.90;;;;;;4975659;28;20037;-43
2022/04/30 00:11:57;;;;;;;24.40;14.15;;;14.30;99.90;;;;;;4975528;28;20023;-41
2022/04/30 00:14:24;;;;;;;22.52;14.18;;;14.20;99.90;;;;;;4975620;28;20475;-42
2022/04/30 00:16:49;;;;;;;19.60;14.27;;;14.20;99.90;;;;;;4975650;28;20503;-42
2022/04/30 00:19:15;;;;;;;21.23;14.15;;;14.20;99.90;;;;;;4975133;28;20427;-42
2022/04/30 00:21:41;;;;;;;18.65;13.98;;;14.10;99.90;;;;;;4975302;28;20031;-41
2022/04/30 00:24:07;;;;;;;24.05;14.07;;;14.10;99.90;;;;;;4975423;28;20509;-43
2022/04/30 00:26:32;;;;;;;21.77;14.32;;;14.20;99.90;;;;;;4990495;28;20058;-43
2022/04/30 00:28:58;;;;;;;24.17;14.07;;;14.20;99.90;;;;;;4975079;28;20038;-43
2022/04/30 00:31:26;;;;;;;26.17;15.07;;;14.00;99.90;;;;;;4975609;28;20038;-42
2022/04/30 00:33:52;;;;;;;22.90;14.20;;;14.10;99.90;;;;;;4975351;28;20031;-43
2022/04/30 00:36:17;;;;;;;23.67;14.75;;;14.10;99.90;;;;;;4975385;28;20022;-44
2022/04/30 00:38:43;;;;;;;20.63;15.00;;;14.10;99.90;;;;;;4974608;28;20499;-43
2022/04/30 00:41:09;;;;;;;19.10;14.15;;;14.10;99.90;;;;;;4975327;28;20129;-43
2022/04/30 00:43:48;;;;;;;22.77;14.02;;;14.20;99.90;;;;;;4974996;28;20027;-42
2022/04/30 00:46:14;;;;;;;21.15;12.82;;;14.20;99.90;;;;;;4975206;28;20046;-43
2022/04/30 00:48:41;;;;;;;23.85;13.60;;;14.10;99.90;;;;;;4974727;28;20027;-43
2022/04/30 00:51:15;;;;;;;22.08;13.57;;;14.00;99.90;;;;;;4974810;28;20022;-43
2022/04/30 00:53:46;;;;;;;22.75;13.93;;;14.10;99.90;;;;;;4989703;28;20027;-44
2022/04/30 00:56:13;;;;;;;25.08;14.45;;;14.00;99.90;;;;;;4974801;28;20026;-44
2022/04/30 00:58:45;;;;;;;27.88;14.27;;;14.00;99.90;;;;;;4974094;28;20039;-45
2022/04/30 01:01:11;;;;;;;19.13;14.27;;;14.00;99.90;;;;;;4974732;28;20074;-45
2022/04/30 01:03:36;;;;;;;23.63;14.75;;;14.00;99.90;;;;;;4974620;28;20036;-43
2022/04/30 01:06:03;;;;;;;22.23;14.35;;;13.80;99.90;;;;;;4975072;28;20049;-45
2022/04/30 01:08:29;;;;;;;21.38;14.27;;;13.80;99.90;;;;;;4974379;28;20023;-44
2022/04/30 01:10:56;;;;;;;22.30;14.85;;;13.60;99.90;;;;;;4974531;28;20542;-44
2022/04/30 01:13:22;;;;;;;23.85;14.40;;;13.60;99.90;;;;;;4974375;28;20031;-43
2022/04/30 01:15:48;;;;;;;22.33;14.43;;;13.60;99.90;;;;;;4974411;28;20031;-43
2022/04/30 01:18:14;;;;;;;23.83;14.90;;;13.50;99.90;;;;;;4972874;28;20059;-42
2022/04/30 01:20:43;;;;;;;28.75;15.63;;;13.50;99.90;;;;;;4974298;28;20061;-42
2022/04/30 01:23:10;;;;;;;25.00;14.73;;;13.40;99.90;;;;;;4973000;28;20070;-43
2022/04/30 01:25:39;;;;;;;26.85;15.60;;;13.30;99.90;;;;;;4974464;28;20042;-44
2022/04/30 01:28:05;;;;;;;16.23;12.73;;;13.30;99.90;;;;;;4973793;28;20097;-44
2022/04/30 01:30:31;;;;;;;22.95;13.45;;;13.40;99.90;;;;;;4974192;28;20114;-48
2022/04/30 01:38:27;;;;;;;20.75;14.20;;;13.20;99.90;;;;;;4972945;28;20093;-43
2022/04/30 01:40:52;;;;;;;22.20;14.20;;;13.20;99.90;;;;;;4973865;28;20105;-46
2022/04/30 01:43:19;;;;;;;23.60;15.43;;;13.10;99.90;;;;;;4973693;28;20027;-45
2022/04/30 01:45:45;;;;;;;24.05;14.93;;;13.00;99.90;;;;;;4974205;28;20023;-45
2022/04/30 01:48:14;;;;;;;21.38;14.18;;;13.00;99.90;;;;;;4973401;28;20019;-43
2022/04/30 01:50:41;;;;;;;23.73;14.10;;;13.00;99.90;;;;;;4973819;28;20445;-45
2022/04/30 01:53:07;;;;;;;23.77;14.27;;;13.00;99.90;;;;;;4973684;28;20027;-46
2022/04/30 01:55:33;;;;;;;24.00;14.73;;;12.90;99.90;;;;;;4973697;28;20399;-50
2022/04/30 01:57:59;;;;;;;21.42;13.90;;;12.80;99.90;;;;;;4973244;28;20053;-46
2022/04/30 02:00:26;;;;;;;20.15;13.05;;;12.80;99.90;;;;;;4973648;28;20106;-46
2022/04/30 02:02:54;;;;;;;26.10;14.55;;;12.90;99.90;;;;;;4973635;28;20031;-47
2022/04/30 02:05:20;;;;;;;23.88;14.30;;;12.90;99.90;;;;;;4973414;28;20118;-43
2022/04/30 02:08:10;;;;;;;20.63;13.68;;;12.90;99.90;;;;;;4973223;28;20455;-42
2022/04/30 02:10:38;;;;;;;17.67;12.57;;;12.80;99.90;;;;;;4973347;28;20037;-44
2022/04/30 02:13:06;;;;;;;18.02;13.25;;;12.80;99.90;;;;;;4973282;28;20022;-43
2022/04/30 02:15:34;;;;;;;19.50;13.52;;;12.80;99.90;;;;;;4973612;28;20502;-42
2022/04/30 02:18:02;;;;;;;26.05;14.43;;;12.70;99.90;;;;;;4972944;28;20042;-47
2022/04/30 02:20:29;;;;;;;19.02;13.57;;;12.80;99.90;;;;;;4973122;28;20034;-45
2022/04/30 02:23:01;;;;;;;21.80;13.82;;;12.80;99.90;;;;;;4973159;28;20452;-44
2022/04/30 02:25:28;;;;;;;18.70;13.35;;;12.80;99.90;;;;;;4972997;28;20026;-44
2022/04/30 02:27:58;;;;;;;24.13;14.98;;;12.70;99.90;;;;;;4972334;28;20049;-46
2022/04/30 02:30:26;;;;;;;20.90;13.27;;;12.60;99.90;;;;;;4971764;28;20029;-46
2022/04/30 02:32:54;;;;;;;22.80;14.48;;;12.50;99.90;;;;;;4973152;28;20074;-46
2022/04/30 02:35:23;;;;;;;20.52;14.48;;;12.40;99.90;;;;;;4972924;28;20387;-46
2022/04/30 02:37:52;;;;;;;27.05;14.57;;;12.30;99.90;;;;;;4973071;28;20030;-45
2022/04/30 02:40:19;;;;;;;23.48;13.70;;;12.20;99.90;;;;;;4973063;28;20117;-44
2022/04/30 02:42:46;;;;;;;20.52;14.45;;;12.10;99.90;;;;;;4972037;28;20106;-45
2022/04/30 02:45:13;;;;;;;22.20;13.65;;;12.10;99.90;;;;;;4972882;28;20081;-43
2022/04/30 02:47:40;;;;;;;15.15;12.73;;;12.00;99.90;;;;;;4972700;28;20157;-45
2022/04/30 02:50:11;;;;;;;21.60;12.98;;;12.00;99.90;;;;;;4974181;28;20031;-46
2022/04/30 02:52:38;;;;;;;16.90;13.00;;;11.90;99.90;;;;;;4973366;28;20018;-48
2022/04/30 02:55:05;;;;;;;20.38;13.13;;;11.80;99.90;;;;;;4972775;28;20027;-43
2022/04/30 03:00:38;;;;;;;16.88;12.85;;;11.60;99.90;;;;;;4972579;28;20034;-49
2022/04/30 03:03:03;;;;;;;18.30;13.30;;;11.50;99.90;;;;;;4972870;28;20110;-46
2022/04/30 03:05:30;;;;;;;18.27;12.75;;;11.40;99.90;;;;;;4972726;28;20118;-45
2022/04/30 03:07:57;;;;;;;19.13;13.48;;;11.40;99.90;;;;;;4972401;28;20033;-45
2022/04/30 03:10:23;;;;;;;14.55;12.27;;;11.30;99.90;;;;;;4972557;28;20035;-45
2022/04/30 03:12:49;;;;;;;18.17;12.68;;;11.20;99.90;;;;;;4971386;28;20493;-44
2022/04/30 03:15:17;;;;;;;14.48;11.48;;;11.20;99.90;;;;;;4973128;28;20026;-43
2022/04/30 03:23:11;;;;;;;16.65;10.88;;;11.00;99.90;;;;;;4972817;28;20037;-43
2022/04/30 03:25:37;;;;;;;18.13;12.35;;;11.00;99.90;;;;;;4972358;28;20039;-45
2022/04/30 03:28:02;;;;;;;15.23;12.48;;;11.10;99.90;;;;;;4972256;28;20027;-44
2022/04/30 03:30:28;;;;;;;21.45;12.15;;;11.10;99.90;;;;;;4972679;28;20058;-43
2022/04/30 03:32:54;;;;;;;14.60;11.73;;;11.10;99.90;;;;;;4987442;28;20022;-45
2022/04/30 03:35:19;;;;;;;16.98;12.73;;;11.10;99.90;;;;;;4972591;28;20026;-45
2022/04/30 03:37:45;;;;;;;18.88;12.50;;;11.10;99.90;;;;;;4970776;28;20118;-47
2022/04/30 03:40:11;;;;;;;15.55;12.10;;;11.10;99.90;;;;;;4973941;28;21041;-45
2022/04/30 03:42:36;;;;;;;18.05;11.63;;;11.00;99.90;;;;;;4976303;28;20034;-45
2022/04/30 03:45:03;;;;;;;14.20;11.15;;;11.00;99.90;;;;;;4976013;28;20399;-43
2022/04/30 03:47:28;;;;;;;16.23;12.75;;;11.00;99.90;;;;;;4975930;28;20034;-45
2022/04/30 03:49:55;;;;;;;17.85;13.20;;;10.90;99.90;;;;;;4974762;28;20019;-46
2022/04/30 03:52:21;;;;;;;16.75;12.77;;;10.90;99.90;;;;;;4976117;28;20418;-44
2022/04/30 03:54:47;;;;;;;18.48;13.13;;;10.90;99.90;;;;;;4976024;28;20030;-44
2022/04/30 03:57:12;;;;;;;17.70;12.10;;;10.90;99.90;;;;;;4976184;28;20027;-44
2022/04/30 03:59:38;;;;;;;19.60;12.88;;;10.90;99.90;;;;;;4975839;28;20098;-45
2022/04/30 04:02:04;;;;;;;22.90;12.85;;;10.90;99.90;;;;;;4976043;28;20403;-44
2022/04/30 04:04:30;;;;;;;17.48;11.90;;;10.90;99.90;;;;;;4975737;28;20382;-42
2022/04/30 04:06:57;;;;;;;16.70;13.05;;;10.80;99.90;;;;;;4974554;28;20018;-43
2022/04/30 04:09:22;;;;;;;18.10;13.27;;;10.70;99.90;;;;;;4975612;28;20023;-43
2022/04/30 04:11:48;;;;;;;15.30;12.85;;;10.80;99.90;;;;;;4975822;28;20394;-42
2022/04/30 04:19:41;;;;;;;16.88;12.27;;;10.80;99.90;;;;;;4975315;28;20046;-43
2022/04/30 04:22:07;;;;;;;15.75;12.27;;;10.80;99.90;;;;;;4975673;28;20035;-43
2022/04/30 04:27:17;;;;;;;14.93;11.95;;;10.90;99.90;;;;;;4975483;28;20026;-47
2022/04/30 04:29:44;;;;;;;17.25;12.85;;;10.80;99.90;;;;;;4975188;28;20027;-45
2022/04/30 04:32:09;;;;;;;14.73;12.98;;;10.80;99.90;;;;;;4975286;28;20023;-44
2022/04/30 04:34:35;;;;;;;19.17;13.98;;;10.80;99.90;;;;;;4975434;28;20154;-42
2022/04/30 04:37:01;;;;;;;20.17;13.65;;;10.80;99.90;;;;;;4975106;28;20459;-45
2022/04/30 04:39:26;;;;;;;21.90;14.65;;;10.70;99.90;;;;;;4974966;28;20041;-44
2022/04/30 04:41:52;;;;;;;17.52;13.68;;;10.70;99.90;;;;;;4975163;28;20110;-44
2022/04/30 04:44:18;;;;;;;20.73;13.32;;;10.70;99.90;;;;;;4975114;28;20050;-42
2022/04/30 04:46:43;;;;;;;23.23;16.58;;;10.60;99.90;;;;;;4974834;28;20031;-42
2022/04/30 04:49:10;;;;;;;20.15;14.48;;;10.50;99.90;;;;;;4975218;28;20376;-43
2022/04/30 04:51:35;;;;;;;18.17;14.60;;;10.50;99.90;;;;;;4974601;28;20442;-42
2022/04/30 04:54:01;;;;;;;21.83;14.50;;;10.50;99.90;;;;;;4975055;28;20039;-44
2022/04/30 04:56:27;;;;;;;21.40;14.57;;;10.40;99.90;;;;;;4974829;28;20039;-43
2022/04/30 04:58:52;;;;;;;18.50;14.52;;;10.40;99.90;;;;;;4974581;28;20150;-42
2022/04/30 05:01:18;;;;;;;21.08;15.02;;;10.30;99.90;;;;;;4974662;28;20557;-42
2022/04/30 05:03:43;;;;;;;19.15;15.07;;;10.40;99.90;;;;;;4975308;28;20042;-43
2022/04/30 05:06:09;;;;;;;23.02;15.07;;;10.40;99.90;;;;;;4973821;28;20034;-46
2022/04/30 05:08:35;;;;;;;17.83;14.05;;;10.40;99.90;;;;;;4974393;28;20051;-42
2022/04/30 05:11:00;;;;;;;16.35;13.52;;;10.40;99.90;;;;;;4974415;28;20066;-45
2022/04/30 05:13:26;;;;;;;18.92;14.50;;;10.30;99.90;;;;;;4974744;28;20057;-45
2022/04/30 05:15:51;;;;;;;18.92;14.35;;;10.30;99.90;;;;;;4974639;28;20031;-43
2022/04/30 05:18:17;;;;;;;16.65;13.73;;;10.30;99.90;;;;;;4974210;28;20038;-45
2022/04/30 05:20:42;;;;;;;19.95;14.77;;;10.30;99.90;;;;;;4974183;28;20533;-44
2022/04/30 05:23:07;;;;;;;18.85;14.07;;;10.40;99.90;;;;;;4974467;28;20403;-46
2022/04/30 05:25:33;;;;;;;21.05;14.38;;;10.30;99.90;;;;;;4972850;28;20031;-43
2022/04/30 05:27:59;;;;;;;16.55;14.38;;;10.30;99.90;;;;;;4973914;28;20135;-44
2022/04/30 05:30:25;;;;;;;17.65;15.10;;;10.30;99.90;;;;;;4974222;28;20030;-41
2022/04/30 05:32:51;;;;;;;16.13;14.43;;;10.40;99.90;;;;;;4974197;28;20027;-45
2022/04/30 05:35:17;;;;;;;17.92;15.90;;;10.40;99.90;;;;;;4974288;28;20487;-44
2022/04/30 05:37:43;;;;;;;20.90;14.45;;;10.50;99.90;;;;;;4973801;28;20033;-43
2022/04/30 05:40:09;;;;;;;19.58;15.20;;;10.50;99.90;;;;;;4996483;23;20126;-42
2022/04/30 05:42:34;;;;;;;21.17;14.55;;;10.50;99.90;;;;;;4972400;28;20380;-43
2022/04/30 05:44:59;;;;;;;23.20;16.60;;;10.50;99.90;;;;;;4973387;28;20062;-39
2022/04/30 05:47:25;;;;;;;19.10;15.00;;;10.50;99.90;;;;;;4973695;28;20499;-47
2022/04/30 05:49:51;;;;;;;18.85;15.05;;;10.40;99.90;;;;;;4974081;28;20442;-44
2022/04/30 05:52:19;;;;;;;21.05;15.82;;;10.50;99.90;;;;;;4973888;28;20077;-44
2022/04/30 05:54:47;;;;;;;20.55;15.57;;;10.40;99.90;;;;;;4973882;28;20035;-47
2022/04/30 05:57:13;;;;;;;22.00;15.60;;;10.30;99.90;;;;;;4973572;28;20077;-44
2022/04/30 05:59:38;;;;;;;21.35;15.50;;;10.20;99.90;;;;;;4974192;28;20418;-46
2022/04/30 06:02:04;;;;;;;21.75;16.02;;;10.20;99.90;;;;;;4972918;28;20162;-45
2022/04/30 06:04:29;;;;;;;21.05;16.30;;;10.10;99.90;;;;;;4973485;28;20394;-45
2022/04/30 06:06:55;;;;;;;23.45;17.10;;;10.20;99.90;;;;;;4972122;28;20165;-49
2022/04/30 06:09:21;;;;;;;20.45;16.55;;;10.10;99.90;;;;;;4973586;28;20102;-41
2022/04/30 06:11:47;;;;;;;21.23;17.33;;;10.20;99.90;;;;;;4973493;28;20022;-46
2022/04/30 06:14:13;;;;;;;20.10;15.77;;;10.10;99.90;;;;;;4973519;28;20375;-46
2022/04/30 06:16:38;;;;;;;21.60;16.60;;;10.00;99.90;;;;;;4973447;28;20119;-47
2022/04/30 06:19:04;;;;;;;22.35;15.13;;;10.00;99.90;;;;;;4973142;28;20042;-45
2022/04/30 06:21:29;;;;;;;20.20;15.68;;;9.90;99.90;;;;;;4973133;28;20027;-40
2022/04/30 06:23:55;;;;;;;22.67;16.83;;;9.90;99.90;;;;;;4973350;28;20041;-44
2022/04/30 06:26:20;;;;;;;20.85;16.77;;;10.10;99.90;;;;;;4973115;28;20027;-43
2022/04/30 06:28:46;;;;;;;24.25;16.77;;;10.00;99.90;;;;;;4972878;28;20102;-44
2022/04/30 06:31:12;;;;;;;22.75;17.50;;;10.00;99.90;;;;;;4973089;28;20486;-40
2022/04/30 06:33:38;;;;;;;20.60;16.38;;;10.10;99.90;;;;;;4973254;28;20023;-50
2022/04/30 06:36:03;;;;;;;25.05;18.70;;;10.20;99.90;;;;;;4973081;28;20030;-48
2022/04/30 06:38:29;;;;;;;23.92;17.52;;;10.20;99.90;;;;;;4972601;28;20536;-44
2022/04/30 06:40:54;;;;;;;22.27;16.75;;;10.30;99.90;;;;;;4972919;28;20043;-42
2022/04/30 06:43:21;;;;;;;22.02;17.63;;;10.10;99.90;;;;;;4973109;28;20030;-44
2022/04/30 06:45:47;;;;;;;21.83;17.35;;;10.10;99.90;;;;;;4973186;28;20109;-45
2022/04/30 06:48:12;;;;;;;25.73;17.98;;;10.10;99.90;;;;;;4972604;28;20513;-44
2022/04/30 06:50:38;;;;;;;20.08;17.02;;;10.00;99.90;;;;;;4973116;28;20050;-46
2022/04/30 06:58:41;;;;;;;21.55;16.15;;;10.00;99.90;;;;;;4975152;28;20061;-43
2022/04/30 07:03:55;;;;;;;18.30;16.35;;;10.10;99.90;;;;;;4973129;28;20480;-44
2022/04/30 07:06:21;;;;;;;17.90;15.45;;;10.10;99.90;;;;;;4972822;28;20479;-48
2022/04/30 07:08:46;;;;;;;20.73;14.63;;;10.10;99.90;;;;;;4972324;28;20045;-39
2022/04/30 07:11:12;;;;;;;19.67;14.32;;;10.10;99.90;;;;;;4972889;28;20394;-44
2022/04/30 07:13:37;;;;;;;18.73;16.45;;;10.00;99.90;;;;;;4973236;28;20031;-43
2022/04/30 07:16:04;;;;;;;18.73;16.08;;;10.10;99.90;;;;;;4977033;28;20118;-50
2022/04/30 07:18:30;;;;;;;22.33;16.50;;;10.20;99.90;;;;;;4976412;28;20038;-43
2022/04/30 07:20:55;;;;;;;20.35;15.57;;;10.30;99.90;;;;;;4976985;28;20031;-46
2022/04/30 07:23:21;;;;;;;20.25;16.77;;;10.30;99.90;;;;;;4976843;28;20402;-46
2022/04/30 07:25:47;;;;;;;23.60;16.52;;;10.40;99.90;;;;;;4978969;28;20029;-53
2022/04/30 07:28:12;;;;;;;19.05;16.13;;;10.30;99.90;;;;;;4975986;28;20030;-39
2022/04/30 07:30:38;;;;;;;18.08;15.63;;;10.40;99.90;;;;;;4976288;28;20503;-44
2022/04/30 07:33:04;;;;;;;20.10;15.52;;;10.40;99.90;;;;;;4976188;28;20483;-49
2022/04/30 07:35:29;;;;;;;21.80;16.33;;;10.30;99.90;;;;;;4976088;28;20255;-43
2022/04/30 07:37:55;;;;;;;18.83;14.88;;;10.30;99.90;;;;;;4975869;28;20046;-43
2022/04/30 07:40:20;;;;;;;18.08;14.57;;;10.30;99.90;;;;;;4976103;28;20035;-44
2022/04/30 07:42:46;;;;;;;17.27;13.73;;;10.40;99.90;;;;;;4976159;28;20553;-43
2022/04/30 07:45:11;;;;;;;16.77;13.43;;;10.40;99.90;;;;;;4977859;28;20538;-43
2022/04/30 07:47:37;;;;;;;19.20;13.70;;;10.30;99.90;;;;;;4976442;28;20022;-44
2022/04/30 07:50:04;;;;;;;19.02;13.88;;;10.20;99.90;;;;;;4975974;28;20031;-45
2022/04/30 07:52:29;;;;;;;19.40;13.73;;;10.20;99.90;;;;;;4975840;28;20051;-40
2022/04/30 07:54:55;;;;;;;20.42;14.75;;;10.20;99.90;;;;;;4979714;28;20073;-50
2022/04/30 07:57:21;;;;;;;20.23;15.05;;;10.10;99.90;;;;;;4975362;28;20432;-48
2022/04/30 07:59:46;;;;;;;19.48;15.48;;;10.20;99.90;;;;;;4975918;28;20077;-43
2022/04/30 08:02:12;;;;;;;19.35;14.95;;;10.20;99.90;;;;;;4974562;28;20031;-45
2022/04/30 08:04:38;;;;;;;19.52;15.25;;;10.30;99.90;;;;;;4974572;28;20027;-39
2022/04/30 08:07:04;;;;;;;18.95;15.73;;;10.30;99.90;;;;;;4975547;28;20023;-45
2022/04/30 08:09:30;;;;;;;19.42;15.45;;;10.40;99.90;;;;;;4975697;28;20046;-44
2022/04/30 08:11:55;;;;;;;22.52;15.63;;;10.30;99.90;;;;;;4974456;28;20034;-39
2022/04/30 08:14:21;;;;;;;21.42;16.23;;;10.30;99.90;;;;;;4975663;28;20052;-42
2022/04/30 08:16:46;;;;;;;21.45;16.60;;;10.30;99.90;;;;;;4976360;28;20031;-41
2022/04/30 08:19:13;;;;;;;17.90;15.32;;;10.20;99.90;;;;;;4976067;28;20403;-43
2022/04/30 08:21:39;;;;;;;19.67;14.70;;;10.20;99.90;;;;;;4972621;28;20031;-43
2022/04/30 08:24:05;;;;;;;20.75;15.60;;;10.30;99.90;;;;;;4973249;28;20031;-42
2022/04/30 08:26:31;;;;;;;19.27;14.20;;;10.40;99.90;;;;;;4972950;28;20035;-47
2022/04/30 08:28:56;;;;;;;19.65;13.85;;;10.40;99.90;;;;;;4970193;28;20019;-41
2022/04/30 08:31:22;;;;;;;16.15;13.90;;;10.20;99.90;;;;;;4974796;28;20038;-45
2022/04/30 08:33:47;;;;;;;18.60;14.00;;;10.30;99.90;;;;;;4975181;28;20025;-44
2022/04/30 08:36:14;;;;;;;15.95;12.85;;;10.20;99.90;;;;;;4974926;28;20043;-47
2022/04/30 08:38:40;;;;;;;16.23;13.30;;;10.20;99.90;;;;;;4974682;28;20081;-44
2022/04/30 08:41:09;;;;;;;16.10;12.57;;;10.10;99.90;;;;;;4974948;28;20062;-44
2022/04/30 08:43:39;;;;;;;15.15;11.70;;;10.00;99.90;;;;;;4975150;28;20034;-48
2022/04/30 08:46:05;;;;;;;16.25;12.98;;;10.00;99.90;;;;;;4974618;28;20031;-44
2022/04/30 08:48:31;;;;;;;16.30;12.60;;;10.00;99.90;;;;;;4974854;28;20027;-46
2022/04/30 08:50:57;;;;;;;17.58;12.32;;;10.00;99.90;;;;;;4975087;28;20046;-39
2022/04/30 08:53:22;;;;;;;19.17;12.57;;;10.10;99.90;;;;;;4974950;28;20475;-45
2022/04/30 08:55:48;;;;;;;15.10;12.52;;;10.10;99.90;;;;;;4974915;28;20130;-46
2022/04/30 08:58:15;;;;;;;15.45;11.98;;;10.10;99.90;;;;;;4989969;28;20030;-44
2022/04/30 09:00:43;;;;;;;17.88;12.32;;;10.10;99.90;;;;;;4975402;28;20398;-44
2022/04/30 09:03:11;;;;;;;13.88;12.07;;;10.10;99.90;;;;;;4977033;28;20031;-45
2022/04/30 09:05:37;;;;;;;15.93;11.88;;;10.10;99.90;;;;;;4976325;28;20061;-44
2022/04/30 09:08:03;;;;;;;16.92;11.60;;;10.20;99.90;;;;;;4976066;28;20022;-43
2022/04/30 09:10:31;;;;;;;14.93;12.02;;;10.10;99.90;;;;;;4973936;28;20029;-47
2022/04/30 09:13:10;;;;;;;13.80;11.15;;;10.10;99.90;;;;;;4974620;28;20053;-53
2022/04/30 09:15:40;;;;;;;14.63;11.35;;;10.20;99.90;;;;;;4974034;28;20089;-50
2022/04/30 09:18:08;;;;;;;13.27;11.77;;;10.20;99.90;;;;;;4973350;28;20118;-51
2022/04/30 09:20:51;;;;;;;13.70;11.10;;;10.30;99.90;;;;;;4973958;28;20026;-47
2022/04/30 09:23:31;;;;;;;13.40;10.13;;;10.30;99.90;;;;;;4965825;28;20503;-46
2022/04/30 09:25:59;;;;;;;11.68;9.07;;;10.30;99.90;;;;;;4954979;28;20458;-47
2022/04/30 09:28:36;;;;;;;10.85;8.60;;;10.20;99.90;;;;;;4969959;28;20395;-41
2022/04/30 09:31:11;;;;;;;10.75;8.43;;;10.20;99.90;;;;;;4974765;28;20118;-42
2022/04/30 09:33:38;;;;;;;10.68;8.45;;;10.20;99.90;;;;;;4973656;28;20035;-42
2022/04/30 09:38:52;;;;;;;12.02;8.23;;;10.10;99.90;;;;;;4973921;28;20040;-44
2022/04/30 09:41:26;;;;;;;10.85;9.23;;;10.10;99.90;;;;;;4974649;28;20388;-45
2022/04/30 09:44:04;;;;;;;10.95;8.05;;;10.10;99.90;;;;;;4972957;28;20027;-48
2022/04/30 09:46:31;;;;;;;12.88;8.48;;;10.10;99.90;;;;;;4973762;28;20113;-48
2022/04/30 09:54:27;;;;;;;10.17;7.97;;;10.10;99.90;;;;;;4974169;28;20030;-43
2022/04/30 09:56:53;;;;;;;11.23;8.25;;;10.10;99.90;;;;;;4972717;28;20049;-43
2022/04/30 09:59:22;;;;;;;11.85;9.55;;;10.10;99.90;;;;;;4973729;28;20423;-44
2022/04/30 10:01:48;;;;;;;8.30;7.40;;;10.20;99.90;;;;;;4973630;28;20089;-46
2022/04/30 10:04:18;;;;;;;9.77;8.25;;;10.30;99.90;;;;;;4973548;28;20101;-44
2022/04/30 10:06:45;;;;;;;9.40;8.38;;;10.20;99.90;;;;;;4954104;28;20023;-42
2022/04/30 10:09:13;;;;;;;11.50;7.95;;;10.20;99.90;;;;;;4960386;28;20114;-50
2022/04/30 10:11:54;;;;;;;13.32;7.72;;;10.30;99.90;;;;;;4973388;28;20050;-50
2022/04/30 10:14:42;;;;;;;8.90;8.00;;;10.40;99.90;;;;;;4973407;28;20030;-48
2022/04/30 10:19:35;;;;;;;9.52;8.43;;;10.10;99.90;;;;;;4967803;28;20046;-47
2022/04/30 10:22:17;;;;;;;8.95;7.57;;;10.30;99.90;;;;;;4967365;28;20031;-47
2022/04/30 10:24:52;;;;;;;8.88;7.53;;;10.30;99.90;;;;;;4971970;28;20027;-42
2022/04/30 10:27:18;;;;;;;9.43;7.38;;;10.30;99.90;;;;;;4987675;28;20031;-49
2022/04/30 10:29:58;;;;;;;10.32;7.68;;;10.30;99.90;;;;;;4972935;28;20029;-51
2022/04/30 10:32:39;;;;;;;8.90;8.00;;;10.30;99.90;;;;;;4972621;28;20552;-44
2022/04/30 10:35:05;;;;;;;9.57;8.57;;;10.30;99.90;;;;;;4953587;28;20403;-47
2022/04/30 10:37:37;;;;;;;8.10;7.30;;;10.20;99.90;;;;;;4961653;28;20438;-49
2022/04/30 10:40:06;;;;;;;9.05;8.13;;;10.20;99.90;;;;;;4972841;28;20030;-48
2022/04/30 10:42:40;;;;;;;7.90;6.97;;;10.10;99.90;;;;;;4973176;28;20030;-44
2022/04/30 10:45:09;;;;;;;11.37;7.93;;;10.10;99.90;;;;;;4972789;28;20027;-48
2022/04/30 10:47:35;;;;;;;8.55;7.72;;;10.00;99.90;;;;;;4972265;28;20353;-50
2022/04/30 10:50:00;;;;;;;9.57;7.53;;;10.00;99.90;;;;;;4971820;28;20118;-47
2022/04/30 10:52:26;;;;;;;10.68;7.50;;;10.00;99.90;;;;;;4962852;28;20023;-46
2022/04/30 10:54:58;;;;;;;9.90;8.13;;;10.20;99.90;;;;;;4972748;28;20019;-46
2022/04/30 10:57:24;;;;;;;11.40;8.25;;;10.20;99.90;;;;;;4980924;28;20027;-51
2022/04/30 11:00:02;;;;;;;10.07;8.32;;;10.20;99.90;;;;;;4969447;28;20045;-48
2022/04/30 11:02:32;;;;;;;11.45;8.40;;;10.20;99.90;;;;;;4987461;28;20049;-51
2022/04/30 11:04:58;;;;;;;9.50;8.43;;;10.00;99.90;;;;;;4968289;28;20031;-49
2022/04/30 11:07:26;;;;;;;12.48;8.50;;;10.00;99.90;;;;;;4967108;28;20046;-44
2022/04/30 11:09:52;;;;;;;9.65;8.30;;;10.10;99.90;;;;;;4972671;28;20042;-51
2022/04/30 11:12:17;;;;;;;11.30;8.75;;;10.00;99.90;;;;;;4972956;28;20434;-49
2022/04/30 11:14:47;;;;;;;9.18;8.07;;;10.10;99.90;;;;;;4971562;28;20077;-44
2022/04/30 11:17:12;;;;;;;10.15;8.40;;;10.00;99.90;;;;;;4972354;28;20050;-47
2022/04/30 11:19:42;;;;;;;10.65;8.38;;;9.90;99.90;;;;;;4972620;28;20522;-46
2022/04/30 11:22:09;;;;;;;14.63;7.10;;;9.90;99.90;;;;;;4972707;28;20094;-45
2022/04/30 11:24:37;;;;;;;8.40;7.60;;;10.00;99.90;;;;;;4972534;28;20065;-49
2022/04/30 11:27:08;;;;;;;7.93;6.78;;;10.00;99.90;;;;;;4987095;28;20050;-45
2022/04/30 11:29:36;;;;;;;9.82;6.85;;;10.10;99.90;;;;;;4972632;28;20487;-44
2022/04/30 11:32:03;;;;;;;11.90;7.30;;;10.20;99.90;;;;;;4972787;28;20022;-43
2022/04/30 11:34:29;;;;;;;8.07;6.28;;;10.30;99.90;;;;;;4972830;28;20106;-42
2022/04/30 11:36:57;;;;;;;8.40;6.07;;;10.30;99.90;;;;;;4972159;28;20054;-46
2022/04/30 11:39:23;;;;;;;10.25;7.05;;;10.30;99.90;;;;;;4972823;28;20034;-48
2022/04/30 11:41:52;;;;;;;12.45;7.72;;;10.30;99.90;;;;;;4972633;23;20101;-49
2022/04/30 11:44:23;;;;;;;8.48;7.22;;;10.30;99.90;;;;;;4953237;28;20035;-46
2022/04/30 11:46:54;;;;;;;7.90;7.10;;;10.30;99.90;;;;;;4952572;28;20047;-46
2022/04/30 11:49:22;;;;;;;7.65;6.68;;;10.20;99.90;;;;;;4953093;28;20110;-45
2022/04/30 11:51:49;;;;;;;8.88;6.32;;;10.30;99.90;;;;;;4952771;28;20030;-46
2022/04/30 11:54:20;;;;;;;7.97;7.18;;;10.20;99.90;;;;;;4953331;28;20419;-45
2022/04/30 11:56:46;;;;;;;8.05;7.07;;;10.30;99.90;;;;;;4952886;28;20035;-40
2022/04/30 11:59:12;;;;;;;8.27;7.45;;;10.30;99.90;;;;;;4950879;28;20027;-48
2022/04/30 12:01:39;;;;;;;6.97;6.07;;;10.40;99.90;;;;;;4954675;28;20612;-45
2022/04/30 12:04:14;;;;;;;8.40;6.53;;;10.40;99.90;;;;;;4956872;28;20035;-47
2022/04/30 12:06:44;;;;;;;7.47;6.47;;;10.40;99.90;;;;;;4956520;28;20355;-42
2022/04/30 12:09:20;;;;;;;8.77;6.30;;;10.50;99.90;;;;;;4956304;28;20032;-44
2022/04/30 12:11:51;;;;;;;7.30;6.40;;;10.50;99.90;;;;;;4956030;28;20034;-45
2022/04/30 12:14:18;;;;;;;8.57;6.20;;;10.60;99.90;;;;;;4971839;28;20023;-47
2022/04/30 12:16:45;;;;;;;10.13;6.47;;;10.60;99.90;;;;;;4975588;28;20038;-42
2022/04/30 12:25:10;;;;;;;8.05;6.88;;;10.60;99.90;;;;;;4976045;28;20540;-45
2022/04/30 12:27:40;;;;;;;8.25;7.45;;;10.70;99.90;;;;;;4990067;28;20123;-45
2022/04/30 12:30:14;;;;;;;8.80;7.43;;;10.60;99.90;;;;;;4975751;28;20419;-45
2022/04/30 12:32:52;;;;;;;8.13;7.00;;;10.70;99.90;;;;;;4975331;28;20023;-44
2022/04/30 12:35:33;;;;;;;10.82;8.48;;;10.90;99.90;;;;;;4975375;28;20098;-45
2022/04/30 12:38:03;;;;;;;9.93;7.95;;;11.00;99.90;;;;;;4975109;28;20077;-43
2022/04/30 12:40:29;;;;;;;14.45;10.13;;;11.20;99.90;;;;;;4975601;28;20115;-43
2022/04/30 12:42:55;;;;;;;10.90;8.63;;;11.40;99.90;;;;;;4975351;28;20088;-43
2022/04/30 12:45:20;;;;;;;16.10;9.90;;;11.50;99.90;;;;;;4975288;28;20034;-45
2022/04/30 12:47:48;;;;;;;15.15;9.73;;;11.70;99.90;;;;;;4974843;28;20074;-44
2022/04/30 12:50:14;;;;;;;12.90;8.77;;;11.70;99.90;;;;;;4975342;28;20031;-44
2022/04/30 12:52:39;;;;;;;11.00;9.90;;;11.80;99.90;;;;;;4975498;28;20113;-43
2022/04/30 12:55:05;;;;;;;11.57;8.95;;;11.90;99.90;;;;;;4975578;28;20038;-46
2022/04/30 12:57:31;;;;;;;12.43;10.25;;;11.90;99.90;;;;;;4975220;28;20033;-46
2022/04/30 12:59:56;;;;;;;12.88;10.38;;;11.70;99.90;;;;;;4974838;28;20031;-46
2022/04/30 13:02:23;;;;;;;10.13;9.13;;;11.80;99.90;;;;;;4975284;28;20034;-46
2022/04/30 13:04:51;;;;;;;15.10;10.00;;;11.80;99.90;;;;;;4974695;28;20019;-43
2022/04/30 13:07:18;;;;;;;11.02;9.88;;;11.90;99.90;;;;;;4974734;28;20034;-45
2022/04/30 13:15:12;;;;;;;12.15;9.50;;;11.90;99.90;;;;;;4975232;28;20038;-43
2022/04/30 13:17:38;;;;;;;13.45;10.23;;;12.00;99.90;;;;;;4974729;28;20023;-45
2022/04/30 13:20:05;;;;;;;14.18;10.63;;;12.10;99.90;;;;;;4975203;28;20097;-45
2022/04/30 13:22:31;;;;;;;13.70;10.52;;;12.10;99.90;;;;;;4974666;28;20030;-45
2022/04/30 13:24:57;;;;;;;9.82;8.43;;;12.00;99.90;;;;;;4974364;28;20077;-44